Weather History for Bay City, TX

Change the Weather History Date:

Monday, July 22, 2013

  Actual Average (KLBX) Record (KLBX)
Temperature  
Mean Temperature 85 °F -  
Max Temperature 91 °F 89 °F 98 °F (1996)
Min Temperature 79 °F 72 °F 71 °F (1999)
Cooling Degree Days 20    
Growing Degree Days 35 (Base 50)    
Moisture  
Dew Point 79 °F    
Average Humidity 82    
Maximum Humidity 100    
Minimum Humidity 59    
Precipitation  
Precipitation 0.00 in - - ()
Sea Level Pressure  
Sea Level Pressure 29.99 in    
Wind  
Wind Speed 8 mph (South)    
Max Wind Speed 17 mph    
Max Gust Speed 24 mph    
Visibility 8 miles    
Events      
Averages and records for this station are not official NWS values.
T = Trace of Precipitation, MM = Missing Value Source: NWS Daily Summary

Daily Weather History Graph

Daily Weather History Graph

Search for Another Location

Airport:

Trip Planner

Search our weather history database for the weather conditions in past years. The results will help you decide how hot, cold, wet, or windy it might be!

Date:

Astronomy

Jul. 22, 2013 Rise Set
Actual Time 6:38 AM CDT 8:20 PM CDT
Civil Twilight 6:12 AM CDT 8:46 PM CDT
Nautical Twilight 5:41 AM CDT 9:18 PM CDT
Astronomical Twilight 5:08 AM CDT 9:51 PM CDT
Moon 8:15 PM CDT (7/22) 6:31 AM CDT (7/22)
Length of Visible Light 14h 34m
Length of Day
13h 41m
Full, 100% of the Moon is Illuminated
Jul 22
Full
Jul 22
Full
Jul 29
Last Quarter
Aug 6
New
Aug 14
First Quarter

Hourly Weather History & Observations

Time (CDT) Temp. Heat Index Dew Point Humidity Pressure Visibility Wind Dir Wind Speed Gust Speed Precip Events Conditions
12:15 AM 80.4 °F 88.7 °F 80.4 °F 100% 29.99 in 7.0 mi SSE 5.8 mph - N/A   Clear
12:35 AM 81.1 °F 91.3 °F 81.1 °F 100% 29.99 in 10.0 mi South 6.9 mph - N/A   Clear
12:55 AM 81.1 °F 91.3 °F 81.1 °F 100% 29.99 in 10.0 mi South 5.8 mph - N/A   Scattered Clouds
1:15 AM 81.1 °F 91.3 °F 81.1 °F 100% 29.99 in 10.0 mi South 5.8 mph - N/A   Scattered Clouds
1:35 AM 81.1 °F 91.3 °F 81.1 °F 100% 29.98 in 10.0 mi South 5.8 mph - N/A   Clear
1:55 AM 81.0 °F 90.6 °F 81.0 °F 100% 29.98 in 10.0 mi South 6.9 mph - N/A   Clear
2:15 AM 81.0 °F 90.6 °F 81.0 °F 100% 29.97 in 10.0 mi South 6.9 mph - N/A   Clear
2:35 AM 81.0 °F 90.6 °F 81.0 °F 100% 29.97 in 10.0 mi SSE 9.2 mph - N/A   Clear
2:55 AM 81.1 °F 91.3 °F 81.1 °F 100% 29.97 in 10.0 mi South 5.8 mph - N/A   Clear
3:15 AM 81.0 °F 90.6 °F 81.0 °F 100% 29.97 in 10.0 mi SSE 6.9 mph - N/A   Clear
3:35 AM 81.1 °F 91.3 °F 81.1 °F 100% 29.97 in 10.0 mi South 5.8 mph - N/A   Scattered Clouds
3:55 AM 81.0 °F 90.6 °F 81.0 °F 100% 29.97 in 10.0 mi South 6.9 mph - N/A   Clear
4:15 AM 81.1 °F 91.3 °F 81.1 °F 100% 29.97 in 10.0 mi South 6.9 mph - N/A   Clear
4:35 AM 81.0 °F 90.6 °F 81.0 °F 100% 29.96 in 10.0 mi South 8.1 mph - N/A   Clear
4:55 AM 81.1 °F 91.3 °F 81.1 °F 100% 29.96 in 10.0 mi South 5.8 mph - N/A   Scattered Clouds
5:15 AM 80.8 °F 90.0 °F 80.8 °F 100% 29.96 in 10.0 mi South 8.1 mph - N/A   Clear
5:35 AM 80.6 °F 89.3 °F 80.6 °F 100% 29.97 in 10.0 mi South 5.8 mph - N/A   Clear
5:55 AM 80.1 °F 87.4 °F 80.1 °F 100% 29.97 in 7.0 mi South 4.6 mph - N/A   Clear
6:15 AM 79.7 °F - 79.7 °F 100% 29.97 in 7.0 mi South 3.5 mph - N/A   Clear
6:35 AM 79.2 °F - 79.2 °F 100% 29.98 in 7.0 mi Calm Calm - N/A   Clear
6:55 AM 79.0 °F - 79.0 °F 100% 29.98 in 7.0 mi South 3.5 mph - N/A   Clear
7:15 AM 79.0 °F - 79.0 °F 100% 29.99 in 7.0 mi Calm Calm - N/A   Scattered Clouds
7:35 AM 79.7 °F - 79.7 °F 100% 29.99 in 7.0 mi Calm Calm - N/A   Clear
7:55 AM 81.3 °F 92.0 °F 81.3 °F 100% 30.00 in 7.0 mi South 3.5 mph - N/A   Scattered Clouds
8:35 AM 84.7 °F 105.3 °F 84.4 °F 99% 30.01 in 7.0 mi South 9.2 mph - N/A   Clear
9:35 AM 86.4 °F 98.8 °F 78.1 °F 76% 30.01 in 7.0 mi South 11.5 mph - N/A   Scattered Clouds
9:55 AM 88.3 °F 101.1 °F 77.5 °F 70% 30.02 in 7.0 mi South 13.8 mph 18.4 mph N/A   Scattered Clouds
10:15 AM 88.9 °F 102.1 °F 77.4 °F 69% 30.02 in 7.0 mi South 12.7 mph - N/A   Mostly Cloudy
10:35 AM 89.2 °F 101.8 °F 76.8 °F 67% 30.03 in 10.0 mi South 13.8 mph - N/A   Scattered Clouds
10:55 AM 89.8 °F 101.5 °F 75.9 °F 64% 30.03 in 10.0 mi South 12.7 mph 17.3 mph N/A   Scattered Clouds
11:15 AM 89.6 °F 101.6 °F 76.6 °F 65% 30.03 in 7.0 mi South 12.7 mph - N/A   Scattered Clouds
11:35 AM 91.0 °F 102.9 °F 75.9 °F 61% 30.03 in 7.0 mi SSE 13.8 mph 20.7 mph N/A   Scattered Clouds
11:55 AM 90.9 °F 103.0 °F 76.3 °F 62% 30.03 in 7.0 mi South 15.0 mph 20.7 mph N/A   Scattered Clouds
12:15 PM 90.7 °F 103.2 °F 76.6 °F 63% 30.03 in 7.0 mi South 16.1 mph 21.9 mph N/A   Mostly Cloudy
12:35 PM 90.7 °F 103.2 °F 76.6 °F 63% 30.03 in 7.0 mi South 13.8 mph 21.9 mph N/A   Mostly Cloudy
12:55 PM 91.2 °F 104.0 °F 76.6 °F 62% 30.03 in 7.0 mi SSE 17.3 mph 21.9 mph N/A   Mostly Cloudy
1:15 PM 90.3 °F 102.3 °F 76.3 °F 63% 30.02 in 7.0 mi South 13.8 mph 20.7 mph N/A   Mostly Cloudy
1:35 PM 91.0 °F 102.9 °F 75.7 °F 61% 30.02 in 10.0 mi South 15.0 mph 23.0 mph N/A   Mostly Cloudy
1:55 PM 91.6 °F 103.6 °F 76.1 °F 60% 30.01 in 7.0 mi SSE 15.0 mph - N/A   Scattered Clouds
2:15 PM 91.2 °F 103.3 °F 75.9 °F 61% 30.01 in 7.0 mi South 13.8 mph 21.9 mph N/A   Scattered Clouds
2:35 PM 91.4 °F 104.5 °F 76.6 °F 62% 30.00 in 7.0 mi SSE 15.0 mph 19.6 mph N/A   Scattered Clouds
2:55 PM 91.2 °F 103.3 °F 76.3 °F 61% 30.00 in 10.0 mi South 16.1 mph 19.6 mph N/A   Mostly Cloudy
3:15 PM 91.8 °F 104.7 °F 76.6 °F 61% 29.99 in 7.0 mi South 13.8 mph - N/A   Mostly Cloudy
3:35 PM 91.8 °F 104.1 °F 76.1 °F 60% 29.99 in 7.0 mi South 12.7 mph - N/A   Mostly Cloudy
3:55 PM 91.6 °F 102.9 °F 75.6 °F 59% 29.99 in 10.0 mi South 16.1 mph 24.2 mph N/A   Scattered Clouds
4:15 PM 91.4 °F 102.5 °F 75.2 °F 59% 29.98 in 7.0 mi South 16.1 mph - N/A   Scattered Clouds
4:35 PM 90.9 °F 101.8 °F 75.2 °F 60% 29.98 in 7.0 mi South 15.0 mph - N/A   Mostly Cloudy
4:55 PM 91.4 °F 102.5 °F 75.2 °F 59% 29.98 in 10.0 mi South 12.7 mph - N/A   Scattered Clouds
5:15 PM 90.9 °F 102.4 °F 75.7 °F 61% 29.98 in 7.0 mi South 15.0 mph 20.7 mph N/A   Scattered Clouds
5:35 PM 90.7 °F 101.9 °F 75.7 °F 61% 29.98 in 7.0 mi South 16.1 mph - N/A   Scattered Clouds
5:55 PM 90.0 °F 101.9 °F 76.3 °F 64% 29.97 in 7.0 mi South 16.1 mph - N/A   Scattered Clouds
6:15 PM 89.4 °F 100.5 °F 75.9 °F 64% 29.97 in 7.0 mi South 15.0 mph 18.4 mph N/A   Scattered Clouds
6:35 PM 88.5 °F 100.5 °F 76.6 °F 68% 29.97 in 7.0 mi SSE 10.4 mph - N/A   Scattered Clouds
6:55 PM 88.0 °F 100.2 °F 77.2 °F 70% 29.97 in 7.0 mi SSE 9.2 mph - N/A   Scattered Clouds
7:15 PM 87.3 °F 99.8 °F 77.7 °F 73% 29.97 in 7.0 mi South 13.8 mph 18.4 mph N/A   Scattered Clouds
7:35 PM 86.4 °F 97.8 °F 77.4 °F 74% 29.97 in 7.0 mi SSE 12.7 mph - N/A   Scattered Clouds
7:55 PM 85.5 °F 96.8 °F 77.4 °F 77% 29.98 in 7.0 mi SSE 10.4 mph - N/A   Clear
8:15 PM 84.7 °F 95.6 °F 77.7 °F 79% 29.97 in 7.0 mi SSE 8.1 mph - N/A   Clear
8:35 PM 83.8 °F 94.3 °F 77.9 °F 82% 29.98 in 7.0 mi SSE 6.9 mph - N/A   Clear
8:55 PM 83.3 °F 93.5 °F 77.9 °F 84% 29.98 in 7.0 mi SSE 8.1 mph - N/A   Clear
9:15 PM 83.1 °F 93.3 °F 78.3 °F 85% 29.98 in 7.0 mi SSE 6.9 mph - N/A   Clear
9:35 PM 82.6 °F 93.0 °F 79.0 °F 89% 29.99 in 7.0 mi SSE 5.8 mph - N/A   Clear
9:55 PM 82.4 °F 95.7 °F 82.0 °F 99% 29.99 in 7.0 mi SSE 6.9 mph - N/A   Scattered Clouds
10:15 PM 82.6 °F 93.3 °F 79.5 °F 90% 30.00 in 7.0 mi SSE 8.1 mph - N/A   Scattered Clouds
10:35 PM 82.2 °F 92.5 °F 79.3 °F 91% 30.00 in 7.0 mi South 6.9 mph - N/A   Clear
10:55 PM 81.9 °F 93.7 °F 81.5 °F 99% 30.01 in 7.0 mi South 6.9 mph - N/A   Clear
11:15 PM 81.7 °F 93.3 °F 81.7 °F 100% 30.01 in 7.0 mi SSE 5.8 mph - N/A   Clear
11:35 PM 81.3 °F 92.0 °F 81.3 °F 100% 30.01 in 7.0 mi SSE 5.8 mph - N/A   Clear
11:55 PM 81.1 °F 91.3 °F 81.1 °F 100% 30.01 in 7.0 mi South 5.8 mph - N/A   Scattered Clouds